Waelder, Texas
Current Conditions -  °F | °C
As of 10:15 AM on Sunday 25 Jan 2015 (Local Time) from KT20 Reporting Station
Clear Clear  
Wind Chill: 61°   Ceiling: Unl
Heat Index: 61°   Visibility: 10mi
Dew Point: 38°   Wind: 10mph
Humidity: 42%   Direction: 310°NW
Pressure: 30.09"   Gusts: NA
Location:  29.7°N, 97.3°W
Report Text: KT20 251615Z AUTO 31009KT 10SM CLR 16/03 A3009 RMK AO2 T01600031
Loading
Personal Weather Stations






























Interactive Weather Map New forecast layout! Learn more

10-Day Weather Forecast

Advertisements
Track Severe Weather on mobile